Time;durP1;ratioP1;P1;durP2;ratioP2;P2;SDS_P1;SDS_P2;PMS_P1;PMS_P2;Temp;Humidity;BMP_temperature;BMP_pressure;BME280_temperature;BME280_humidity;BME280_pressure;Samples;Min_cycle;Max_cycle;Signal;HPM_P1;HPM_P2
2020/12/14 04:36:54;;;;;;;20.33;14.83;;;;;;;7.36;58.10;98495.72;6865583;28;20234;-87
2020/12/14 04:40:16;;;;;;;14.37;10.67;;;;;;;7.01;59.07;98492.06;6874673;28;20222;-88
2020/12/14 04:43:37;;;;;;;9.63;8.33;;;;;;;6.51;59.14;98403.72;6858983;29;20207;-86
2020/12/14 04:47:02;;;;;;;8.20;6.80;;;;;;;7.28;57.80;98456.44;6858875;29;20218;-87
2020/12/14 04:50:25;;;;;;;7.60;6.67;;;;;;;6.99;57.29;98423.59;6857840;28;20218;-86
2020/12/14 04:53:47;;;;;;;7.93;6.07;;;;;;;6.81;57.51;98425.88;6856730;28;20605;-86
2020/12/14 04:57:09;;;;;;;7.00;5.93;;;;;;;6.66;58.07;98423.25;6857486;28;20215;-86
2020/12/14 05:00:30;;;;;;;8.40;6.20;;;;;;;7.04;57.55;98475.59;6857544;28;20230;-87
2020/12/14 05:03:51;;;;;;;7.70;6.67;;;;;;;6.57;58.98;98463.72;6845340;28;20215;-87
2020/12/14 05:07:13;;;;;;;8.43;6.80;;;;;;;6.24;60.48;98503.47;6845207;29;20213;-86
2020/12/14 05:10:35;;;;;;;9.20;7.03;;;;;;;6.48;59.90;98499.69;6852058;29;20702;-86
2020/12/14 05:14:11;;;;;;;9.20;7.73;;;;;;;5.60;60.14;98362.41;6852023;28;20238;-89
2020/12/14 05:17:33;;;;;;;10.43;7.73;;;;;;;5.21;60.85;98374.34;6851009;29;20876;-89
2020/12/14 05:21:01;;;;;;;10.93;7.33;;;;;;;6.16;60.49;98425.97;6820540;29;20222;-88
2020/12/14 05:24:24;;;;;;;8.53;7.03;;;;;;;6.77;60.11;98484.38;6835423;28;20202;-86
2020/12/14 05:27:46;;;;;;;9.23;6.67;;;;;;;6.80;60.00;98491.19;6825030;29;20215;-86
2020/12/14 05:31:18;;;;;;;8.00;7.10;;;;;;;6.46;59.49;98424.88;6832311;29;20284;-89
2020/12/14 05:34:41;;;;;;;10.43;6.83;;;;;;;5.93;59.68;98366.38;6855038;28;20207;-88
2020/12/14 05:38:17;;;;;;;7.93;6.53;;;;;;;6.60;59.71;98426.69;6855743;29;20206;-89
2020/12/14 05:41:38;;;;;;;7.17;6.47;;;;;;;6.68;58.81;98431.09;6857233;29;20236;-88
2020/12/14 05:45:11;;;;;;;8.47;6.63;;;;;;;6.26;60.19;98490.72;6846811;29;20216;-88
2020/12/14 05:48:34;;;;;;;9.37;6.70;;;;;;;6.58;60.31;98498.38;6830613;29;20215;-89
2020/12/14 05:52:03;;;;;;;7.47;6.20;;;;;;;6.42;59.84;98474.47;6841317;29;20233;-87
2020/12/14 05:55:26;;;;;;;10.73;7.50;;;;;;;6.17;59.58;98451.69;6851305;28;20208;-85
2020/12/14 05:58:50;;;;;;;11.73;7.80;;;;;;;6.23;59.68;98484.91;6828654;29;20267;-84
2020/12/14 06:02:14;;;;;;;10.53;6.73;;;;;;;5.95;60.33;98468.69;6825472;29;20289;-84
2020/12/14 06:05:36;;;;;;;9.93;7.30;;;;;;;6.12;60.67;98494.25;6840635;29;20218;-87
2020/12/14 06:09:04;;;;;;;9.47;7.87;;;;;;;5.90;60.84;98443.50;6847385;29;20203;-84
2020/12/14 06:12:29;;;;;;;7.60;6.63;;;;;;;6.61;60.48;98497.97;6824116;29;20230;-83
2020/12/14 06:15:51;;;;;;;9.57;6.80;;;;;;;6.43;60.01;98459.25;6824141;29;20218;-85
2020/12/14 06:19:14;;;;;;;7.13;6.30;;;;;;;6.33;60.00;98504.22;6824515;29;20292;-83
2020/12/14 06:22:36;;;;;;;9.07;6.53;;;;;;;5.74;60.32;98457.88;6825310;29;20245;-84
2020/12/14 06:26:03;;;;;;;8.23;6.60;;;;;;;5.79;60.94;98446.59;6835497;29;20387;-84
2020/12/14 06:29:30;;;;;;;8.67;6.87;;;;;;;6.44;60.54;98499.22;6827983;29;20310;-85
2020/12/14 06:32:58;;;;;;;8.37;6.63;;;;;;;6.55;59.22;98500.59;6835935;29;20327;-84
2020/12/14 06:36:21;;;;;;;10.97;6.17;;;;;;;6.34;59.69;98490.66;6823339;29;20210;-84
2020/12/14 06:39:43;;;;;;;6.60;5.53;;;;;;;6.19;59.66;98491.69;6835407;29;20214;-84
2020/12/14 06:43:05;;;;;;;7.77;6.20;;;;;;;5.81;59.98;98480.22;6844150;29;20379;-86
2020/12/14 06:46:26;;;;;;;10.33;7.33;;;;;;;5.56;60.09;98419.94;6826301;29;20210;-88
2020/12/14 06:49:48;;;;;;;9.80;7.00;;;;;;;5.78;61.14;98482.41;6817127;29;20667;-88
2020/12/14 06:53:43;;;;;;;11.97;7.73;;;;;;;6.11;61.02;98499.78;6838402;29;20230;-86
2020/12/14 06:57:13;;;;;;;9.77;7.93;;;;;;;5.84;60.89;98485.19;6850486;29;20221;-89
2020/12/14 07:00:44;;;;;;;9.50;7.53;;;;;;;6.29;60.21;98510.94;6852679;28;20304;-89
2020/12/14 07:04:08;;;;;;;10.13;7.57;;;;;;;6.35;60.39;98507.53;6862942;28;20206;-89
2020/12/14 07:07:39;;;;;;;8.07;6.77;;;;;;;6.31;60.34;98515.09;6857577;28;20217;-89
2020/12/14 07:11:26;;;;;;;10.93;7.97;;;;;;;5.64;61.74;98526.81;6858567;28;20237;-91
2020/12/14 07:14:56;;;;;;;9.40;6.83;;;;;;;6.48;60.36;98529.94;6858955;29;20262;-90
2020/12/14 07:18:22;;;;;;;9.03;7.57;;;;;;;5.75;59.71;98407.84;6857499;28;20217;-88
2020/12/14 07:21:49;;;;;;;10.80;6.73;;;;;;;6.28;59.73;98469.97;6827123;29;20234;-87
2020/12/14 07:25:26;;;;;;;7.93;6.70;;;;;;;6.72;59.52;98526.16;6829291;29;20267;-89
2020/12/14 07:28:48;;;;;;;7.53;6.43;;;;;;;6.59;59.22;98499.19;6833498;29;20679;-88
2020/12/14 07:32:11;;;;;;;9.93;7.67;;;;;;;6.09;59.52;98513.38;6827463;29;20228;-87
2020/12/14 07:35:32;;;;;;;8.87;7.43;;;;;;;6.00;60.33;98486.84;6825782;29;20218;-86
2020/12/14 07:38:55;;;;;;;9.13;6.87;;;;;;;6.19;60.00;98519.25;6831091;29;20206;-89
2020/12/14 07:42:23;;;;;;;10.60;7.97;;;;;;;6.37;60.04;98532.28;6849688;29;20225;-85
2020/12/14 07:45:45;;;;;;;10.83;7.37;;;;;;;6.37;59.88;98530.41;6856201;29;20209;-87
2020/12/14 07:49:08;;;;;;;11.73;8.50;;;;;;;5.80;61.57;98537.41;6851907;29;20650;-86
2020/12/14 07:52:33;;;;;;;11.90;8.60;;;;;;;5.58;62.31;98484.75;6845102;29;20230;-87
2020/12/14 07:56:02;;;;;;;10.20;7.93;;;;;;;6.10;60.41;98474.88;6838299;29;20205;-87
2020/12/14 07:59:25;;;;;;;10.27;7.73;;;;;;;6.43;60.76;98551.09;6853253;28;20213;-88
2020/12/14 08:02:50;;;;;;;9.93;8.33;;;;;;;6.15;60.51;98520.66;6833260;29;20233;-87
2020/12/14 08:06:20;;;;;;;11.57;8.20;;;;;;;6.66;60.38;98549.13;6832555;29;20229;-87
2020/12/14 08:09:47;;;;;;;11.87;8.83;;;;;;;6.67;59.97;98542.75;6833841;28;20290;-88
2020/12/14 08:13:09;;;;;;;9.43;8.00;;;;;;;6.52;60.37;98547.31;6829111;29;20230;-87
2020/12/14 08:16:32;;;;;;;10.20;7.80;;;;;;;6.95;59.75;98551.78;6827924;29;20221;-87
2020/12/14 08:19:53;;;;;;;10.17;7.90;;;;;;;6.64;60.79;98511.00;6834349;29;20229;-86
2020/12/14 08:23:20;;;;;;;9.77;7.73;;;;;;;6.77;59.86;98465.63;6847148;29;20230;-86
2020/12/14 08:26:49;;;;;;;8.03;7.03;;;;;;;7.65;58.98;98539.31;6856900;28;20257;-86
2020/12/14 08:30:11;;;;;;;7.93;6.50;;;;;;;7.68;58.33;98528.19;6857653;28;20678;-87
2020/12/14 08:33:53;;;;;;;8.07;7.27;;;;;;;7.75;58.61;98534.44;6856957;28;20236;-87
2020/12/14 08:37:18;;;;;;;7.17;6.37;;;;;;;8.34;57.90;98510.72;6833521;28;20217;-86
2020/12/14 08:40:50;;;;;;;9.23;6.83;;;;;;;10.56;52.37;98529.75;6851649;29;20239;-84
2020/12/14 08:44:18;;;;;;;7.90;6.30;;;;;;;10.64;49.61;98435.13;6841545;29;20206;-82
2020/12/14 08:47:41;;;;;;;10.40;7.30;;;;;;;10.74;50.61;98519.09;6832356;29;20254;-80
2020/12/14 08:51:04;;;;;;;7.23;6.03;;;;;;;10.90;50.87;98532.94;6833599;29;20229;-80
2020/12/14 08:54:27;;;;;;;8.87;6.33;;;;;;;9.49;53.92;98508.63;6816518;29;20255;-79
2020/12/14 08:57:59;;;;;;;6.97;6.27;;;;;;;10.40;52.35;98530.19;6816923;29;20204;-80
2020/12/14 09:01:21;;;;;;;6.47;5.67;;;;;;;10.36;52.05;98519.00;6816059;29;20623;-79
2020/12/14 09:04:43;;;;;;;7.40;6.03;;;;;;;10.44;52.14;98510.69;6826174;29;20370;-80
2020/12/14 09:08:11;;;;;;;6.33;5.47;;;;;;;10.27;51.80;98509.47;6836789;29;20567;-79
2020/12/14 09:11:34;;;;;;;8.20;6.23;;;;;;;10.68;52.74;98550.41;6821781;29;20220;-80
2020/12/14 09:15:04;;;;;;;5.77;5.20;;;;;;;10.37;53.26;98549.44;6820605;29;20218;-80
2020/12/14 09:18:26;;;;;;;7.07;5.53;;;;;;;10.58;52.28;98541.13;6829467;29;20210;-80
2020/12/14 09:21:47;;;;;;;5.93;5.33;;;;;;;11.15;50.35;98547.34;6825589;29;20219;-83
2020/12/14 09:25:08;;;;;;;5.80;5.23;;;;;;;10.74;50.89;98489.44;6819641;29;20240;-84
2020/12/14 09:28:34;;;;;;;6.33;5.70;;;;;;;11.38;50.16;98552.19;6833413;29;20203;-85
2020/12/14 09:31:57;;;;;;;5.67;4.93;;;;;;;11.41;49.98;98524.78;6833354;29;20222;-83
2020/12/14 09:35:19;;;;;;;5.63;5.13;;;;;;;11.97;48.53;98558.06;6834081;29;20246;-87
2020/12/14 09:38:40;;;;;;;5.80;5.30;;;;;;;12.21;49.36;98559.97;6828642;29;20196;-85
2020/12/14 09:42:02;;;;;;;6.00;5.40;;;;;;;12.21;47.48;98559.97;6847853;29;20225;-88
2020/12/14 09:45:23;;;;;;;5.60;5.00;;;;;;;11.76;47.60;98531.44;6835908;29;20210;-88
2020/12/14 09:48:45;;;;;;;5.63;5.00;;;;;;;11.76;48.35;98550.34;6841611;29;20709;-88
2020/12/14 09:52:07;;;;;;;5.07;4.57;;;;;;;11.76;47.46;98447.69;6838626;29;20257;-88
2020/12/14 09:55:29;;;;;;;5.43;4.93;;;;;;;12.26;46.99;98533.91;6828119;29;20201;-88
2020/12/14 09:58:50;;;;;;;5.20;4.80;;;;;;;12.43;46.18;98542.25;6836649;29;20194;-88
2020/12/14 10:02:11;;;;;;;5.70;5.10;;;;;;;12.37;46.54;98535.88;6821207;29;20230;-88
2020/12/14 10:05:33;;;;;;;5.27;4.83;;;;;;;12.30;46.92;98547.78;6822242;29;20202;-87
2020/12/14 10:08:54;;;;;;;6.27;4.87;;;;;;;12.49;46.43;98538.66;6823071;29;20218;-87
2020/12/14 10:12:15;;;;;;;5.60;5.10;;;;;;;12.86;45.93;98526.84;6839872;29;20237;-84
2020/12/14 10:15:37;;;;;;;5.57;5.00;;;;;;;12.57;47.06;98535.69;6832574;29;20206;-84
2020/12/14 10:18:59;;;;;;;5.13;4.60;;;;;;;13.12;45.26;98529.22;6820603;29;20213;-84
2020/12/14 10:22:21;;;;;;;5.07;4.57;;;;;;;13.10;43.72;98526.75;6814097;29;20230;-83
2020/12/14 10:25:42;;;;;;;5.63;4.70;;;;;;;12.41;45.66;98503.81;6833288;29;20201;-80
2020/12/14 10:29:03;;;;;;;5.20;4.60;;;;;;;12.78;45.21;98522.53;6841251;29;20217;-81
2020/12/14 10:32:25;;;;;;;5.03;4.53;;;;;;;12.37;46.39;98519.66;6838641;29;20606;-81
2020/12/14 10:35:47;;;;;;;6.00;4.83;;;;;;;12.27;46.54;98519.34;6832264;29;20421;-84
2020/12/14 10:39:09;;;;;;;6.83;4.93;;;;;;;12.78;46.14;98529.81;6835290;29;20256;-83
2020/12/14 10:42:30;;;;;;;6.10;5.50;;;;;;;12.43;46.71;98517.94;6821881;28;20234;-83
2020/12/14 10:45:51;;;;;;;5.77;5.20;;;;;;;12.36;47.63;98511.75;6815519;29;20210;-80
2020/12/14 10:49:12;;;;;;;5.70;5.10;;;;;;;12.43;46.71;98518.75;6838636;28;20583;-80
2020/12/14 10:52:34;;;;;;;6.00;5.50;;;;;;;12.46;47.06;98504.78;6843362;28;20236;-87
2020/12/14 10:55:59;;;;;;;5.80;5.03;;;;;;;12.73;45.97;98480.97;6815801;29;20212;-87
2020/12/14 10:59:20;;;;;;;6.00;5.40;;;;;;;13.45;45.63;98505.25;6824145;29;20206;-86
2020/12/14 11:02:41;;;;;;;4.87;4.47;;;;;;;13.26;45.22;98444.06;6824380;29;20237;-87
2020/12/14 11:06:02;;;;;;;5.93;5.27;;;;;;;13.27;45.90;98495.28;6835178;29;20201;-86
2020/12/14 11:09:23;;;;;;;6.50;5.00;;;;;;;13.36;45.67;98495.78;6851060;29;20225;-87
2020/12/14 11:12:45;;;;;;;6.27;5.30;;;;;;;12.94;47.25;98494.03;6845246;28;20225;-84
2020/12/14 11:16:07;;;;;;;6.70;5.57;;;;;;;13.26;46.00;98484.66;6826411;29;20689;-84
2020/12/14 11:19:29;;;;;;;5.13;4.63;;;;;;;12.95;46.55;98471.34;6818370;29;20213;-83
2020/12/14 11:22:50;;;;;;;6.10;5.50;;;;;;;13.33;46.07;98469.19;6817221;29;20754;-83
2020/12/14 11:26:11;;;;;;;5.90;4.73;;;;;;;13.36;46.22;98472.25;6818004;29;20210;-83
2020/12/14 11:29:33;;;;;;;7.27;4.87;;;;;;;13.20;46.45;98462.06;6817771;29;20214;-83
2020/12/14 11:32:55;;;;;;;5.57;4.97;;;;;;;13.21;46.56;98463.72;6817886;29;20699;-83
2020/12/14 11:36:16;;;;;;;5.63;5.07;;;;;;;13.12;46.02;98434.50;6818998;29;20210;-83
2020/12/14 11:39:37;;;;;;;6.73;5.20;;;;;;;12.58;46.48;98421.03;6836035;29;20201;-83
2020/12/14 11:42:58;;;;;;;5.83;4.77;;;;;;;12.98;46.47;98454.69;6848895;28;20256;-83
2020/12/14 11:46:20;;;;;;;5.57;4.93;;;;;;;13.11;45.53;98460.72;6846008;29;20202;-83
2020/12/14 11:49:42;;;;;;;6.63;5.07;;;;;;;13.34;45.65;98460.81;6844721;29;20228;-83
2020/12/14 11:53:03;;;;;;;5.00;4.50;;;;;;;13.70;45.52;98427.34;6845395;28;20226;-82
2020/12/14 11:56:24;;;;;;;5.60;5.00;;;;;;;13.44;46.28;98442.13;6844822;29;20221;-83
2020/12/14 11:59:45;;;;;;;8.90;5.70;;;;;;;12.88;47.66;98421.91;6845018;29;20206;-83
2020/12/14 12:03:07;;;;;;;5.90;5.30;;;;;;;12.63;48.77;98443.63;6846281;29;20221;-83
2020/12/14 12:06:29;;;;;;;6.13;5.53;;;;;;;12.71;49.27;98445.22;6819878;29;20543;-83
2020/12/14 12:09:50;;;;;;;6.07;5.47;;;;;;;13.11;48.59;98428.25;6844294;29;20220;-84
2020/12/14 12:13:12;;;;;;;7.07;5.37;;;;;;;13.74;47.41;98444.78;6848386;29;20229;-85
2020/12/14 12:16:33;;;;;;;7.13;5.67;;;;;;;12.99;48.54;98413.03;6851714;29;20202;-84
2020/12/14 12:19:55;;;;;;;7.57;5.63;;;;;;;12.76;48.69;98418.31;6855104;29;20289;-85
2020/12/14 12:23:17;;;;;;;8.57;6.27;;;;;;;13.26;49.12;98444.06;6856765;28;20229;-85
2020/12/14 12:26:38;;;;;;;7.97;6.23;;;;;;;13.75;47.70;98433.69;6860606;29;20220;-84
2020/12/14 12:29:59;;;;;;;7.07;6.37;;;;;;;13.17;48.87;98418.41;6858216;29;20711;-84
2020/12/14 12:33:21;;;;;;;11.23;8.43;;;;;;;12.29;51.37;98422.66;6851789;28;20230;-84
2020/12/14 12:36:54;;;;;;;6.60;5.93;;;;;;;12.54;50.54;98430.66;6833141;29;20225;-84
2020/12/14 12:40:15;;;;;;;8.23;6.97;;;;;;;12.63;50.07;98359.81;6833398;29;20301;-85
2020/12/14 12:43:36;;;;;;;7.53;6.10;;;;;;;12.97;50.02;98364.56;6834102;29;20210;-83
2020/12/14 12:46:58;;;;;;;6.97;6.20;;;;;;;13.51;48.00;98396.78;6829931;29;20738;-86
2020/12/14 12:50:19;;;;;;;5.90;5.27;;;;;;;13.62;48.43;98390.56;6830200;29;20213;-84
2020/12/14 12:53:41;;;;;;;6.93;5.50;;;;;;;14.28;47.99;98420.88;6829176;29;20235;-84
2020/12/14 12:57:03;;;;;;;6.60;5.90;;;;;;;13.82;47.85;98420.88;6828103;29;20210;-84
2020/12/14 13:00:25;;;;;;;6.00;5.40;;;;;;;14.05;46.62;98418.16;6842994;29;20218;-84
2020/12/14 13:03:46;;;;;;;7.40;5.67;;;;;;;14.18;46.47;98414.38;6846354;29;20210;-84
2020/12/14 13:07:08;;;;;;;6.07;5.07;;;;;;;14.33;45.62;98383.03;6840491;29;20569;-84
2020/12/14 13:10:30;;;;;;;5.70;5.10;;;;;;;14.59;45.83;98403.38;6826667;28;20673;-83
2020/12/14 13:13:51;;;;;;;6.37;5.30;;;;;;;13.88;45.81;98279.03;6847138;28;20595;-85
2020/12/14 13:17:13;;;;;;;6.93;5.40;;;;;;;14.67;46.13;98381.28;6847489;28;20207;-86
2020/12/14 13:20:35;;;;;;;5.10;4.37;;;;;;;15.17;45.22;98385.78;6831932;29;20227;-85
2020/12/14 13:23:56;;;;;;;7.27;5.13;;;;;;;14.54;45.93;98395.13;6817000;29;20214;-85
2020/12/14 13:27:18;;;;;;;7.00;5.53;;;;;;;14.87;45.85;98378.97;6821779;29;20199;-84
2020/12/14 13:30:39;;;;;;;6.13;4.87;;;;;;;14.85;46.45;98375.66;6816670;29;20242;-84
2020/12/14 13:34:01;;;;;;;6.17;4.80;;;;;;;15.54;44.62;98361.72;6832923;28;20253;-84
2020/12/14 13:37:23;;;;;;;5.23;4.70;;;;;;;15.69;44.20;98343.75;6840312;28;20206;-84
2020/12/14 13:40:44;;;;;;;8.73;5.10;;;;;;;15.48;44.12;98311.09;6823895;29;20248;-84
2020/12/14 13:44:06;;;;;;;8.53;4.93;;;;;;;15.02;46.61;98336.63;6841879;29;20206;-84
2020/12/14 13:47:27;;;;;;;5.17;4.60;;;;;;;15.01;45.45;98355.88;6843273;29;20214;-81
2020/12/14 13:50:48;;;;;;;6.50;5.30;;;;;;;14.78;45.61;98367.69;6845245;28;20224;-82
2020/12/14 13:54:09;;;;;;;7.57;5.23;;;;;;;14.52;46.20;98332.97;6845869;28;20233;-82
2020/12/14 13:57:31;;;;;;;7.03;4.97;;;;;;;14.59;46.37;98378.94;6819034;29;20206;-82
2020/12/14 14:00:53;;;;;;;5.27;4.40;;;;;;;14.17;47.58;98377.50;6818034;29;20602;-82
2020/12/14 14:04:14;;;;;;;5.13;4.60;;;;;;;14.11;47.96;98384.66;6820193;29;20224;-84
2020/12/14 14:07:35;;;;;;;6.27;5.00;;;;;;;14.13;47.92;98387.16;6825806;29;20663;-79
2020/12/14 14:11:11;;;;;;;6.40;4.90;;;;;;;13.76;48.49;98372.22;6830989;29;20221;-83
2020/12/14 14:14:33;;;;;;;7.87;5.73;;;;;;;14.17;48.14;98383.72;6715156;29;20741;-86
2020/12/14 14:17:55;;;;;;;7.27;4.67;;;;;;;14.10;48.01;98382.22;6724269;29;20220;-86
2020/12/14 14:21:16;;;;;;;4.80;4.40;;;;;;;13.52;49.89;98384.09;6734468;29;20237;-83
2020/12/14 14:24:37;;;;;;;5.53;5.00;;;;;;;13.64;49.43;98388.44;6720830;29;20901;-83
2020/12/14 14:27:58;;;;;;;5.43;4.67;;;;;;;13.90;48.82;98387.16;6716213;29;20257;-83
2020/12/14 14:31:20;;;;;;;5.73;5.03;;;;;;;14.15;48.25;98385.84;6717488;29;20220;-81
2020/12/14 14:34:42;;;;;;;7.67;5.10;;;;;;;14.40;47.56;98407.31;6732174;29;20229;-83
2020/12/14 14:38:05;;;;;;;5.87;4.77;;;;;;;14.70;46.76;98402.50;6715355;29;20224;-83
2020/12/14 14:41:26;;;;;;;7.13;5.00;;;;;;;14.15;47.19;98406.72;6711088;29;20225;-84
2020/12/14 14:44:47;;;;;;;6.23;5.63;;;;;;;14.23;47.45;98390.94;6711574;29;20686;-84
2020/12/14 14:48:14;;;;;;;5.20;4.63;;;;;;;13.88;48.82;98410.97;6729169;29;20212;-84
2020/12/14 14:51:45;;;;;;;6.37;5.47;;;;;;;13.89;48.50;98383.66;6795634;29;20224;-85
2020/12/14 14:55:07;;;;;;;6.07;5.47;;;;;;;14.20;47.86;98401.44;6837042;29;20233;-87
2020/12/14 14:58:28;;;;;;;7.77;5.77;;;;;;;14.23;48.17;98392.84;6823036;29;20214;-88
2020/12/14 15:01:50;;;;;;;6.23;5.63;;;;;;;14.33;47.47;98384.94;6837743;29;20356;-88
2020/12/14 15:05:11;;;;;;;6.47;5.57;;;;;;;14.01;48.52;98392.59;6820685;29;20207;-84
2020/12/14 15:08:33;;;;;;;6.17;5.30;;;;;;;13.86;48.36;98392.22;6820319;29;20202;-85
2020/12/14 15:11:54;;;;;;;6.57;5.90;;;;;;;14.06;48.14;98400.00;6825301;29;20226;-85
2020/12/14 15:15:15;;;;;;;7.37;5.50;;;;;;;13.89;48.45;98382.81;6817442;29;20234;-85
2020/12/14 15:18:37;;;;;;;6.10;5.50;;;;;;;13.82;48.69;98398.38;6817446;29;20217;-85
2020/12/14 15:21:58;;;;;;;8.37;5.37;;;;;;;13.99;48.25;98413.66;6817535;29;20243;-84
2020/12/14 15:25:20;;;;;;;8.43;6.83;;;;;;;13.91;47.89;98383.38;6826143;29;20206;-85
2020/12/14 15:28:41;;;;;;;10.50;7.17;;;;;;;13.51;49.38;98413.06;6844467;29;20198;-85
2020/12/14 15:32:02;;;;;;;7.57;6.70;;;;;;;13.41;49.26;98374.91;6844284;29;20230;-84
2020/12/14 15:35:24;;;;;;;6.70;6.00;;;;;;;13.13;49.90;98382.00;6826763;28;20228;-84
2020/12/14 15:38:46;;;;;;;7.90;6.47;;;;;;;12.93;50.80;98393.09;6818346;29;20210;-84
2020/12/14 15:42:08;;;;;;;7.63;6.80;;;;;;;12.47;51.96;98375.84;6840873;29;20229;-85
2020/12/14 15:45:29;;;;;;;7.10;6.13;;;;;;;13.10;50.77;98398.72;6834772;29;20287;-84
2020/12/14 15:48:53;;;;;;;8.03;6.23;;;;;;;13.18;50.85;98392.97;6816341;29;20555;-85
2020/12/14 15:52:14;;;;;;;8.20;6.67;;;;;;;13.10;50.62;98383.28;6838707;29;20236;-84
2020/12/14 15:55:37;;;;;;;7.93;6.50;;;;;;;12.94;51.47;98385.81;6839911;28;20205;-84
2020/12/14 15:59:02;;;;;;;8.83;7.07;;;;;;;12.40;52.99;98388.63;6824305;29;20214;-83
2020/12/14 16:02:23;;;;;;;11.67;7.60;;;;;;;12.44;52.96;98350.06;6825816;29;20236;-84
2020/12/14 16:05:45;;;;;;;8.80;7.03;;;;;;;12.75;52.44;98365.28;6833204;29;20333;-83
2020/12/14 16:09:06;;;;;;;8.70;6.47;;;;;;;12.63;52.26;98365.22;6827491;29;20210;-83
2020/12/14 16:12:27;;;;;;;8.97;7.80;;;;;;;12.36;53.18;98374.72;6823212;29;20240;-84
2020/12/14 16:15:49;;;;;;;11.17;7.50;;;;;;;12.49;52.87;98352.94;6832029;29;20201;-83
2020/12/14 16:19:10;;;;;;;9.03;7.57;;;;;;;11.84;54.51;98360.97;6847787;28;20738;-83
2020/12/14 16:22:31;;;;;;;9.53;8.20;;;;;;;12.11;54.01;98344.25;6846915;29;20694;-84
2020/12/14 16:25:53;;;;;;;11.43;8.43;;;;;;;12.02;54.46;98369.94;6847699;28;20202;-83
2020/12/14 16:29:14;;;;;;;14.97;9.40;;;;;;;12.19;53.80;98380.94;6849403;28;20212;-82
2020/12/14 16:32:36;;;;;;;11.53;8.83;;;;;;;11.93;54.51;98365.06;6850321;28;20222;-82
2020/12/14 16:35:58;;;;;;;12.40;9.30;;;;;;;11.82;54.65;98352.28;6827911;29;20228;-83
2020/12/14 16:39:19;;;;;;;12.70;10.00;;;;;;;11.95;54.83;98354.84;6845106;29;20212;-82
2020/12/14 16:42:41;;;;;;;12.20;9.50;;;;;;;11.73;54.75;98334.69;6844849;29;20219;-81
2020/12/14 16:46:02;;;;;;;10.73;9.00;;;;;;;11.93;54.34;98346.94;6827147;29;20226;-83
2020/12/14 16:49:24;;;;;;;12.53;9.10;;;;;;;11.89;53.60;98342.22;6846429;29;20198;-82
2020/12/14 16:52:47;;;;;;;18.30;10.27;;;;;;;11.32;54.39;98253.47;6855807;29;20230;-81
2020/12/14 16:56:10;;;;;;;13.03;9.83;;;;;;;11.83;54.32;98362.03;6848979;29;20209;-85
2020/12/14 16:59:31;;;;;;;18.13;13.87;;;;;;;11.99;54.27;98380.38;6849144;29;20206;-82
2020/12/14 17:02:55;;;;;;;11.90;10.20;;;;;;;12.24;53.40;98379.25;6847166;29;20225;-84
2020/12/14 17:06:18;;;;;;;10.53;8.40;;;;;;;11.39;55.31;98348.72;6836383;29;20295;-83
2020/12/14 17:09:39;;;;;;;13.43;10.70;;;;;;;11.55;56.38;98359.78;6848735;28;20575;-84
2020/12/14 17:13:01;;;;;;;15.60;12.07;;;;;;;11.86;54.85;98321.09;6829629;29;20235;-85
2020/12/14 17:16:22;;;;;;;10.73;9.63;;;;;;;11.27;55.01;98288.44;6820088;29;20206;-82
2020/12/14 17:19:44;;;;;;;10.67;9.47;;;;;;;12.04;53.79;98331.88;6819874;29;20205;-85
2020/12/14 17:23:06;;;;;;;14.97;10.13;;;;;;;11.87;53.61;98347.03;6818423;29;20224;-81
2020/12/14 17:26:27;;;;;;;13.07;9.13;;;;;;;11.62;55.41;98360.56;6818306;29;20203;-83
2020/12/14 17:29:49;;;;;;;13.87;9.53;;;;;;;11.37;55.63;98345.41;6820393;29;20212;-81
2020/12/14 17:33:10;;;;;;;11.83;10.03;;;;;;;11.56;55.61;98347.13;6820620;29;20233;-83
2020/12/14 17:36:31;;;;;;;11.43;9.33;;;;;;;11.51;55.29;98320.78;6820792;29;20220;-85
2020/12/14 17:39:54;;;;;;;11.23;8.60;;;;;;;11.64;54.56;98355.75;6821593;29;20208;-86
2020/12/14 17:43:23;;;;;;;11.27;8.77;;;;;;;11.15;54.01;98233.56;6840354;28;20609;-85
2020/12/14 17:50:34;;;;;;;9.00;7.40;;;;;;;11.24;54.86;98335.56;6811752;29;20304;-84
2020/12/14 17:53:59;;;;;;;10.30;8.23;;;;;;;11.56;54.29;98345.22;6819887;29;20736;-85
2020/12/14 18:01:43;;;;;;;10.40;8.47;;;;;;;11.77;54.26;98339.47;6813426;29;20234;-85
2020/12/14 18:05:21;;;;;;;9.63;7.93;;;;;;;11.28;53.98;98298.19;6777342;29;20207;-84
2020/12/14 18:08:43;;;;;;;11.27;9.00;;;;;;;11.26;53.06;98263.31;6836108;29;20206;-87
2020/12/14 18:12:09;;;;;;;8.57;7.23;;;;;;;11.17;54.11;98313.19;6847055;29;20747;-85
2020/12/14 18:15:33;;;;;;;8.87;7.73;;;;;;;11.54;53.71;98341.09;6845198;29;20225;-85
2020/12/14 18:19:00;;;;;;;10.73;8.13;;;;;;;10.90;53.86;98248.91;6846332;29;20226;-84
2020/12/14 18:22:40;;;;;;;9.63;7.67;;;;;;;11.32;53.22;98280.47;6845689;28;20238;-86
2020/12/14 18:26:02;;;;;;;11.10;7.70;;;;;;;11.65;52.69;98327.75;6845082;28;20243;-85
2020/12/14 18:29:24;;;;;;;9.17;7.43;;;;;;;11.60;52.55;98303.28;6848561;28;20206;-85
2020/12/14 21:24:18;;;;;;;13.30;9.27;;;;;;;9.73;58.68;98376.13;6851628;29;20208;-89
2020/12/14 21:27:39;;;;;;;16.13;11.73;;;;;;;9.79;58.13;98376.13;6852052;29;20206;-88
2020/12/14 21:31:01;;;;;;;10.60;8.67;;;;;;;9.86;57.38;98363.47;6849636;29;20230;-88
2020/12/14 21:34:24;;;;;;;13.70;10.70;;;;;;;8.44;61.48;98320.47;6838083;29;20233;-88
2020/12/14 21:37:45;;;;;;;12.80;9.70;;;;;;;9.50;57.48;98322.75;6826294;29;20227;-88
2020/12/14 21:41:06;;;;;;;9.87;8.60;;;;;;;9.88;56.97;98377.56;6824203;29;20238;-87
2020/12/14 21:44:28;;;;;;;12.87;9.23;;;;;;;10.18;56.47;98399.44;6826204;29;20213;-87
2020/12/14 21:47:50;;;;;;;10.97;8.40;;;;;;;9.96;55.79;98357.63;6826583;29;20205;-89
2020/12/14 21:51:12;;;;;;;9.83;7.33;;;;;;;10.48;54.64;98412.19;6824164;29;20243;-87
2020/12/14 21:54:33;;;;;;;8.97;6.77;;;;;;;10.70;53.65;98405.44;6826339;29;20245;-87
2020/12/14 21:57:54;;;;;;;32.90;27.77;;;;;;;10.75;53.71;98391.31;6844214;29;20220;-87
